X  Blizu METAR Podaci o vazduhoplovstvu     EDDK Cologne Bonn Airport
Temperatura
13°C Temperatura
3°C Tačka Rose
51% Vlaga



Vetar
27 KM/S
17 MPS
8 M/S
15 Čvorovi



230°
JZ
Trenutna situacija

Delimično oblačno Delimično oblačno
Vazdušni pritisak 1006.77 (hPa) - 29.73 (inHg)
Vidljivost 6 (Milje) - 9.7 (km)
Aerodrom
Aerodromski kod. EDDK

Lokacija: Cologne Bonn Airport
Udaljenost: 56 (km)

Metar:
EDDK 151120Z AUTO 23015KT 190V270 9999 SCT049 13/03 Q1007 BECMG 24015G25KT

Vreme: 2024-04-15 13:20 CEST